createdAt,value
2022-08-26T00:00:23.228Z,21.15
2022-08-26T00:03:04.904Z,21.14
2022-08-26T00:05:51.710Z,21.13
2022-08-26T00:08:21.807Z,21.12
2022-08-26T00:11:05.083Z,21.08
2022-08-26T00:13:36.620Z,21.05
2022-08-26T00:16:08.392Z,21.01
2022-08-26T00:18:41.693Z,20.96
2022-08-26T00:21:11.816Z,20.93
2022-08-26T00:23:40.829Z,20.90
2022-08-26T00:26:11.097Z,20.89
2022-08-26T00:28:41.534Z,20.85
2022-08-26T00:31:24.383Z,20.80
2022-08-26T00:33:53.840Z,20.78
2022-08-26T00:36:23.038Z,20.74
2022-08-26T00:38:52.727Z,20.70
2022-08-26T00:41:22.233Z,20.66
2022-08-26T00:43:53.268Z,20.63
2022-08-26T00:46:29.677Z,20.60
2022-08-26T00:49:13.287Z,20.56
2022-08-26T00:52:01.443Z,20.49
2022-08-26T00:54:37.746Z,20.45
2022-08-26T00:57:19.416Z,20.41
2022-08-26T01:00:06.934Z,20.37
2022-08-26T01:02:50.931Z,20.34
2022-08-26T01:05:20.853Z,20.31
2022-08-26T01:07:50.600Z,20.27
2022-08-26T01:10:27.176Z,20.24
2022-08-26T01:13:00.340Z,20.22
2022-08-26T01:15:48.360Z,20.19
2022-08-26T01:18:18.921Z,20.15
2022-08-26T01:21:13.892Z,20.12
2022-08-26T01:23:48.351Z,20.07
2022-08-26T01:26:23.708Z,20.05
2022-08-26T01:28:57.287Z,20.01
2022-08-26T01:31:30.703Z,19.97
2022-08-26T01:34:18.106Z,19.94
2022-08-26T01:36:54.873Z,19.91
2022-08-26T01:39:24.456Z,19.87
2022-08-26T01:41:58.548Z,19.84
2022-08-26T01:44:37.083Z,19.82
2022-08-26T01:47:22.155Z,19.73
2022-08-26T01:49:55.318Z,19.69
2022-08-26T01:52:28.463Z,19.66
2022-08-26T01:54:59.857Z,19.63
2022-08-26T01:57:30.214Z,19.60
2022-08-26T02:00:02.179Z,19.59
2022-08-26T02:02:44.460Z,19.58
2022-08-26T02:05:21.042Z,19.54
2022-08-26T02:07:51.460Z,19.50
2022-08-26T02:10:21.272Z,19.45
2022-08-26T02:12:50.737Z,19.40
2022-08-26T02:15:20.993Z,19.39
2022-08-26T02:17:52.850Z,19.37
2022-08-26T02:20:22.738Z,19.36
2022-08-26T02:22:52.439Z,19.38
2022-08-26T02:25:30.583Z,19.39
2022-08-26T02:28:00.894Z,19.38
2022-08-26T02:30:33.489Z,19.37
2022-08-26T02:33:17.438Z,19.35
2022-08-26T02:35:48.436Z,19.32
2022-08-26T02:38:17.953Z,19.29
2022-08-26T02:40:48.227Z,19.26
2022-08-26T02:43:31.754Z,19.23
2022-08-26T02:46:02.690Z,19.20
2022-08-26T02:48:32.629Z,19.19
2022-08-26T02:51:02.650Z,19.17
2022-08-26T02:53:35.600Z,19.10
2022-08-26T02:56:11.475Z,19.07
2022-08-26T02:58:41.053Z,19.04
2022-08-26T03:01:22.622Z,19.00
2022-08-26T03:03:54.139Z,18.95
2022-08-26T03:06:37.964Z,18.90
2022-08-26T03:09:20.912Z,18.84
2022-08-26T03:11:51.554Z,18.81
2022-08-26T03:14:22.769Z,18.78
2022-08-26T03:16:54.679Z,18.75
2022-08-26T03:19:26.296Z,18.72
2022-08-26T03:21:57.825Z,18.69
2022-08-26T03:24:27.936Z,18.67
2022-08-26T03:26:57.537Z,18.66
2022-08-26T03:29:45.810Z,18.64
2022-08-26T03:32:21.574Z,18.59
2022-08-26T03:34:51.032Z,18.55
2022-08-26T03:37:22.239Z,18.52
2022-08-26T03:39:51.874Z,18.52
2022-08-26T03:42:22.427Z,18.51
2022-08-26T03:45:07.630Z,18.47
2022-08-26T03:47:37.549Z,18.42
2022-08-26T03:50:10.198Z,18.37
2022-08-26T03:52:43.707Z,18.32
2022-08-26T03:55:15.749Z,18.29
2022-08-26T03:57:45.480Z,18.27
2022-08-26T04:00:18.573Z,18.25
2022-08-26T04:02:53.324Z,18.23
2022-08-26T04:05:23.764Z,18.21
2022-08-26T04:07:53.767Z,18.19
2022-08-26T04:10:28.814Z,18.17
2022-08-26T04:12:59.753Z,18.16
2022-08-26T04:15:29.525Z,18.14
2022-08-26T04:17:59.248Z,18.14
2022-08-26T04:20:30.669Z,18.14
2022-08-26T04:23:01.410Z,18.12
2022-08-26T04:25:31.258Z,18.10
2022-08-26T04:28:01.089Z,18.10
2022-08-26T04:30:30.871Z,18.13
2022-08-26T04:33:00.046Z,18.15
2022-08-26T04:35:32.320Z,18.18
2022-08-26T04:38:03.145Z,18.19
2022-08-26T04:40:35.599Z,18.21
2022-08-26T04:43:18.756Z,18.23
2022-08-26T04:45:48.337Z,18.27
2022-08-26T04:48:33.633Z,18.32
2022-08-26T04:51:05.213Z,18.36
2022-08-26T04:53:35.412Z,18.37
2022-08-26T04:56:05.869Z,18.39
2022-08-26T04:58:36.322Z,18.44
2022-08-26T05:01:06.503Z,18.47
2022-08-26T05:03:37.132Z,18.50
2022-08-26T05:06:06.828Z,18.56
2022-08-26T05:08:39.286Z,18.62
2022-08-26T05:11:24.018Z,18.70
2022-08-26T05:13:53.453Z,18.76
2022-08-26T05:16:22.878Z,18.82
2022-08-26T05:18:54.742Z,18.88
2022-08-26T05:21:39.215Z,18.94
2022-08-26T05:24:11.782Z,18.96
2022-08-26T05:26:41.185Z,19.00
2022-08-26T05:29:10.475Z,19.07
2022-08-26T05:31:39.514Z,19.16
2022-08-26T05:34:08.757Z,19.24
2022-08-26T05:36:51.444Z,19.33
2022-08-26T05:39:21.795Z,19.39
2022-08-26T05:42:08.926Z,19.47
2022-08-26T05:44:55.667Z,19.54
2022-08-26T05:47:27.054Z,19.62
2022-08-26T05:49:56.750Z,19.70
2022-08-26T05:52:26.315Z,19.78
2022-08-26T05:54:55.920Z,19.83
2022-08-26T05:57:25.516Z,19.87
2022-08-26T06:00:10.833Z,19.94
2022-08-26T06:02:41.109Z,20.00
2022-08-26T06:05:10.821Z,20.07
2022-08-26T06:08:12.734Z,20.15
2022-08-26T06:10:46.614Z,20.19
2022-08-26T06:13:18.899Z,20.23
2022-08-26T06:15:50.933Z,20.27
2022-08-26T06:18:28.919Z,20.33
2022-08-26T06:21:27.354Z,20.39
2022-08-26T06:24:18.785Z,20.42
2022-08-26T06:26:51.847Z,20.45
2022-08-26T06:29:25.912Z,20.48
2022-08-26T06:31:56.824Z,20.50
2022-08-26T06:34:30.964Z,20.52
2022-08-26T06:37:06.739Z,20.54
2022-08-26T06:39:49.811Z,20.55
2022-08-26T06:42:20.939Z,20.55
2022-08-26T06:44:53.816Z,20.54
2022-08-26T06:47:23.134Z,20.54
2022-08-26T06:49:54.470Z,20.55
2022-08-26T06:52:24.390Z,20.58
2022-08-26T06:54:53.672Z,20.63
2022-08-26T06:57:22.834Z,20.68
2022-08-26T06:59:52.084Z,20.74
2022-08-26T07:02:21.436Z,20.80
2022-08-26T07:04:51.129Z,20.88
2022-08-26T07:07:21.886Z,20.95
2022-08-26T07:10:07.171Z,21.07
2022-08-26T07:12:37.237Z,21.17
2022-08-26T07:15:27.095Z,21.28
2022-08-26T07:18:00.209Z,21.38
2022-08-26T07:20:30.066Z,21.48
2022-08-26T07:22:59.408Z,21.59
2022-08-26T07:25:28.547Z,21.69
2022-08-26T07:27:57.549Z,21.76
2022-08-26T07:30:41.604Z,21.86
2022-08-26T07:33:11.169Z,21.95
2022-08-26T07:35:41.287Z,22.04
2022-08-26T07:38:12.091Z,22.13
2022-08-26T07:40:43.007Z,22.21
2022-08-26T07:43:13.392Z,22.29
2022-08-26T07:45:42.905Z,22.36
2022-08-26T07:48:11.910Z,22.42
2022-08-26T07:50:50.227Z,22.48
2022-08-26T07:53:22.115Z,22.56
2022-08-26T07:55:53.608Z,22.67
2022-08-26T07:58:22.969Z,22.79
2022-08-26T08:00:52.076Z,22.90
2022-08-26T08:03:23.355Z,22.94
2022-08-26T08:05:52.889Z,22.99
2022-08-26T08:08:27.608Z,23.02
2022-08-26T08:11:02.107Z,23.03
2022-08-26T08:13:32.066Z,23.05
2022-08-26T08:16:01.616Z,23.05
2022-08-26T08:18:31.549Z,23.09
2022-08-26T08:21:20.910Z,23.12
2022-08-26T08:23:56.434Z,23.15
2022-08-26T08:26:26.660Z,23.19
2022-08-26T08:28:57.448Z,23.24
2022-08-26T08:31:56.051Z,23.33
2022-08-26T08:34:27.181Z,23.45
2022-08-26T08:36:57.666Z,23.50
2022-08-26T08:39:26.596Z,23.57
2022-08-26T08:42:11.284Z,23.65
2022-08-26T08:44:44.649Z,23.73
2022-08-26T08:47:50.773Z,23.79
2022-08-26T08:50:29.124Z,23.91
2022-08-26T08:53:38.209Z,24.06
2022-08-26T08:56:31.934Z,24.24
2022-08-26T08:59:25.173Z,24.45
2022-08-26T09:02:14.494Z,24.65
2022-08-26T09:05:16.696Z,24.85
2022-08-26T09:08:00.231Z,25.02
2022-08-26T09:10:47.188Z,25.17
2022-08-26T09:13:25.058Z,25.30
2022-08-26T09:16:20.291Z,25.43
2022-08-26T09:19:37.568Z,25.53
2022-08-26T09:22:09.306Z,25.61
2022-08-26T09:24:41.818Z,25.65
2022-08-26T09:27:41.272Z,25.64
2022-08-26T09:30:18.680Z,25.64
2022-08-26T09:33:14.510Z,25.73
2022-08-26T09:35:49.000Z,25.84
2022-08-26T09:38:33.725Z,25.94
2022-08-26T09:41:08.839Z,26.05
2022-08-26T09:43:38.106Z,26.11
2022-08-26T09:46:19.437Z,26.13
2022-08-26T09:48:51.687Z,26.15
2022-08-26T09:51:24.844Z,26.19
2022-08-26T09:54:08.149Z,26.27
2022-08-26T09:56:50.938Z,26.42
2022-08-26T09:59:31.297Z,26.60
2022-08-26T10:02:16.889Z,26.79
2022-08-26T10:04:54.764Z,26.96
2022-08-26T10:07:43.232Z,27.16
2022-08-26T10:10:38.147Z,27.37
2022-08-26T10:13:12.978Z,27.61
2022-08-26T10:15:54.556Z,27.81
2022-08-26T10:18:34.283Z,27.97
2022-08-26T10:21:26.786Z,28.15
2022-08-26T10:24:00.006Z,28.28
2022-08-26T10:27:02.645Z,28.46
2022-08-26T10:29:48.568Z,28.65
2022-08-26T10:32:37.575Z,28.86
2022-08-26T10:35:13.997Z,28.98
2022-08-26T10:38:04.849Z,28.95
2022-08-26T10:40:55.211Z,28.87
2022-08-26T10:43:45.347Z,28.79
2022-08-26T10:46:30.983Z,28.84
2022-08-26T10:49:14.154Z,28.82
2022-08-26T10:51:56.379Z,28.82
2022-08-26T10:54:40.127Z,28.79
2022-08-26T10:57:12.437Z,28.75
2022-08-26T11:00:27.796Z,28.81
2022-08-26T11:03:06.196Z,28.91
2022-08-26T11:06:19.725Z,28.87
2022-08-26T11:08:52.557Z,28.85
2022-08-26T11:11:40.765Z,28.88
2022-08-26T11:14:29.711Z,28.88
2022-08-26T11:17:01.515Z,28.84
2022-08-26T11:19:45.578Z,28.75
2022-08-26T11:22:48.048Z,28.74
2022-08-26T11:25:19.907Z,28.78
2022-08-26T11:27:54.769Z,28.74
2022-08-26T11:30:24.176Z,28.61
2022-08-26T11:32:57.878Z,28.50
2022-08-26T11:35:26.810Z,28.55
2022-08-26T11:38:19.613Z,28.67
2022-08-26T11:41:11.795Z,28.84
2022-08-26T11:43:41.058Z,29.04
2022-08-26T11:46:13.411Z,29.23
2022-08-26T11:48:44.796Z,29.41
2022-08-26T11:51:24.059Z,29.57
2022-08-26T11:54:09.881Z,29.72
2022-08-26T11:56:42.539Z,29.90
2022-08-26T11:59:16.204Z,30.08
2022-08-26T12:01:52.746Z,30.24
2022-08-26T12:04:41.513Z,30.41
2022-08-26T12:07:13.706Z,30.55
2022-08-26T12:10:02.099Z,30.69
2022-08-26T12:12:36.043Z,30.82
2022-08-26T12:15:24.907Z,30.95
2022-08-26T12:18:29.035Z,31.08
2022-08-26T12:21:02.165Z,31.17
2022-08-26T12:23:31.399Z,31.28
2022-08-26T12:26:12.111Z,31.40
2022-08-26T12:29:12.739Z,31.56
2022-08-26T12:31:51.351Z,31.73
2022-08-26T12:34:20.783Z,31.80
2022-08-26T12:36:54.519Z,31.91
2022-08-26T12:39:31.479Z,32.03
2022-08-26T12:42:15.847Z,32.13
2022-08-26T12:45:04.477Z,32.24
2022-08-26T12:47:43.177Z,32.35
2022-08-26T12:50:32.941Z,32.45
2022-08-26T12:53:23.530Z,32.57
2022-08-26T12:55:56.311Z,32.63
2022-08-26T12:58:34.848Z,32.72
2022-08-26T13:01:07.228Z,32.82
2022-08-26T13:03:43.564Z,32.88
2022-08-26T13:06:41.008Z,32.93
2022-08-26T13:09:09.843Z,32.99
2022-08-26T13:11:45.459Z,33.05
2022-08-26T13:14:24.020Z,33.11
2022-08-26T13:16:54.054Z,33.17
2022-08-26T13:19:25.943Z,33.19
2022-08-26T13:21:58.918Z,33.18
2022-08-26T13:24:38.836Z,33.20
2022-08-26T13:27:24.280Z,33.27
2022-08-26T13:29:54.355Z,33.33
2022-08-26T13:32:26.891Z,33.39
2022-08-26T13:34:57.975Z,33.46
2022-08-26T13:37:34.995Z,33.54
2022-08-26T13:40:06.995Z,33.65
2022-08-26T13:42:36.295Z,33.71
2022-08-26T13:45:05.515Z,33.80
2022-08-26T13:47:45.376Z,33.88
2022-08-26T13:50:16.729Z,33.95
2022-08-26T13:53:11.764Z,34.01
2022-08-26T13:55:43.337Z,34.02
2022-08-26T13:58:13.805Z,33.97
2022-08-26T14:00:43.336Z,33.87
2022-08-26T14:03:13.467Z,33.66
2022-08-26T14:05:56.071Z,33.46
2022-08-26T14:08:25.233Z,33.33
2022-08-26T14:10:54.399Z,33.33
2022-08-26T14:13:23.176Z,33.44
2022-08-26T14:15:53.178Z,33.51
2022-08-26T14:18:29.550Z,33.61
2022-08-26T14:20:59.603Z,33.69
2022-08-26T14:23:28.451Z,33.78
2022-08-26T14:25:57.599Z,33.84
2022-08-26T14:28:26.706Z,33.86
2022-08-26T14:30:58.377Z,33.88
2022-08-26T14:33:41.552Z,33.90
2022-08-26T14:36:29.432Z,33.93
2022-08-26T14:39:13.862Z,34.02
2022-08-26T14:41:54.119Z,34.05
2022-08-26T14:44:37.840Z,34.05
2022-08-26T14:47:07.166Z,34.12
2022-08-26T14:49:36.544Z,34.20
2022-08-26T14:52:05.756Z,34.24
2022-08-26T14:54:34.607Z,34.24
2022-08-26T14:57:06.402Z,34.25
2022-08-26T14:59:37.292Z,34.23
2022-08-26T15:02:08.677Z,34.21
2022-08-26T15:04:38.559Z,34.18
2022-08-26T15:07:20.974Z,34.16
2022-08-26T15:09:50.193Z,34.18
2022-08-26T15:12:19.154Z,34.18
2022-08-26T15:14:48.314Z,34.14
2022-08-26T15:17:17.984Z,34.11
2022-08-26T15:19:47.882Z,34.12
2022-08-26T15:22:16.744Z,34.12
2022-08-26T15:24:45.264Z,34.14
2022-08-26T15:27:14.437Z,34.12
2022-08-26T15:30:00.686Z,34.07
2022-08-26T15:32:39.793Z,34.07
2022-08-26T15:35:09.481Z,34.07
2022-08-26T15:37:39.349Z,34.04
2022-08-26T15:40:10.310Z,34.01
2022-08-26T15:42:39.259Z,34.02
2022-08-26T15:45:24.980Z,34.10
2022-08-26T15:47:59.243Z,34.11
2022-08-26T15:50:53.753Z,34.09
2022-08-26T15:53:24.889Z,34.06
2022-08-26T15:56:07.364Z,33.97
2022-08-26T15:58:50.672Z,33.91
2022-08-26T16:01:27.436Z,33.87
2022-08-26T16:03:57.346Z,33.84
2022-08-26T16:06:30.479Z,33.78
2022-08-26T16:09:00.333Z,33.72
2022-08-26T16:11:30.032Z,33.65
2022-08-26T16:13:59.377Z,33.54
2022-08-26T16:16:28.800Z,33.50
2022-08-26T16:18:57.748Z,33.48
2022-08-26T16:21:29.071Z,33.43
2022-08-26T16:23:58.667Z,33.31
2022-08-26T16:26:42.828Z,33.15
2022-08-26T16:29:14.762Z,32.98
2022-08-26T16:31:43.478Z,32.83
2022-08-26T16:34:12.648Z,32.67
2022-08-26T16:36:41.148Z,32.46
2022-08-26T16:39:10.513Z,32.25
2022-08-26T16:41:39.849Z,32.07
2022-08-26T16:44:09.072Z,31.90
2022-08-26T16:46:39.859Z,31.74
2022-08-26T16:49:08.907Z,31.57
2022-08-26T16:51:38.546Z,31.40
2022-08-26T16:54:08.956Z,31.22
2022-08-26T16:56:38.291Z,31.04
2022-08-26T16:59:10.747Z,30.86
2022-08-26T17:01:40.124Z,30.63
2022-08-26T17:04:09.136Z,30.42
2022-08-26T17:06:38.463Z,30.21
2022-08-26T17:09:08.318Z,29.98
2022-08-26T17:11:51.052Z,29.75
2022-08-26T17:14:20.541Z,29.49
2022-08-26T17:16:54.199Z,29.26
2022-08-26T17:19:36.375Z,29.09
2022-08-26T17:22:10.672Z,28.94
2022-08-26T17:24:39.812Z,28.81
2022-08-26T17:27:09.138Z,28.66
2022-08-26T17:29:37.835Z,28.47
2022-08-26T17:32:07.077Z,28.29
2022-08-26T17:34:35.852Z,28.09
2022-08-26T17:37:04.787Z,27.86
2022-08-26T17:39:33.393Z,27.66
2022-08-26T17:42:02.190Z,27.46
2022-08-26T17:44:30.905Z,27.26
2022-08-26T17:47:00.068Z,27.09
2022-08-26T17:49:29.097Z,26.91
2022-08-26T17:51:59.051Z,26.75
2022-08-26T17:54:28.375Z,26.61
2022-08-26T17:57:00.403Z,26.47
2022-08-26T17:59:30.666Z,26.33
2022-08-26T18:01:59.932Z,26.18
2022-08-26T18:04:28.610Z,26.02
2022-08-26T18:06:57.355Z,25.88
2022-08-26T18:09:26.565Z,25.75
2022-08-26T18:14:51.323Z,25.51
2022-08-26T18:17:20.455Z,25.40
2022-08-26T18:19:49.431Z,25.25
2022-08-26T18:22:18.647Z,25.10
2022-08-26T18:24:54.262Z,24.94
2022-08-26T18:27:28.515Z,24.80
2022-08-26T18:30:00.247Z,24.63
2022-08-26T18:32:32.693Z,24.53
2022-08-26T18:35:05.338Z,24.46
2022-08-26T18:37:34.731Z,24.37
2022-08-26T18:40:07.353Z,24.28
2022-08-26T18:42:36.956Z,24.25
2022-08-26T18:45:07.281Z,24.25
2022-08-26T18:47:36.990Z,24.25
2022-08-26T18:50:07.596Z,24.23
2022-08-26T18:52:36.403Z,24.17
2022-08-26T18:55:06.598Z,24.11
2022-08-26T18:57:36.438Z,24.06
2022-08-26T19:00:07.558Z,24.03
2022-08-26T19:02:37.284Z,24.01
2022-08-26T19:05:09.960Z,23.98
2022-08-26T19:07:39.774Z,23.94
2022-08-26T19:10:09.275Z,23.90
2022-08-26T19:12:39.802Z,23.87
2022-08-26T19:15:11.178Z,23.82
2022-08-26T19:17:41.451Z,23.79
2022-08-26T19:20:11.404Z,23.76
2022-08-26T19:22:41.585Z,23.74
2022-08-26T19:25:10.793Z,23.71
2022-08-26T19:27:39.888Z,23.68
2022-08-26T19:30:10.358Z,23.66
2022-08-26T19:32:52.852Z,23.61
2022-08-26T19:35:21.523Z,23.57
2022-08-26T19:37:50.276Z,23.53
2022-08-26T19:40:19.610Z,23.49
2022-08-26T19:42:48.764Z,23.46
2022-08-26T19:45:25.017Z,23.42
2022-08-26T19:47:54.379Z,23.37
2022-08-26T19:50:25.434Z,23.33
2022-08-26T19:52:55.017Z,23.28
2022-08-26T19:55:24.552Z,23.24
2022-08-26T19:58:08.119Z,23.18
2022-08-26T20:00:40.258Z,23.14
2022-08-26T20:03:13.061Z,23.11
2022-08-26T20:05:45.199Z,23.07
2022-08-26T20:08:22.541Z,23.03
2022-08-26T20:10:52.766Z,23.00
2022-08-26T20:13:22.951Z,22.94
2022-08-26T20:15:52.075Z,22.91
2022-08-26T20:18:40.376Z,22.86
2022-08-26T20:21:28.619Z,22.82
2022-08-26T20:24:19.078Z,22.77
2022-08-26T20:26:50.253Z,22.73
2022-08-26T20:29:19.960Z,22.71
2022-08-26T20:31:50.320Z,22.67
2022-08-26T20:34:20.303Z,22.64
2022-08-26T20:36:51.260Z,22.59
2022-08-26T20:39:21.516Z,22.54
2022-08-26T20:41:51.104Z,22.50
2022-08-26T20:44:20.348Z,22.48
2022-08-26T20:46:49.151Z,22.44
2022-08-26T20:49:19.171Z,22.39
2022-08-26T20:51:52.754Z,22.35
2022-08-26T20:54:32.478Z,22.30
2022-08-26T20:57:02.015Z,22.26
2022-08-26T20:59:31.589Z,22.22
2022-08-26T21:02:07.923Z,22.17
2022-08-26T21:04:40.915Z,22.14
2022-08-26T21:07:13.527Z,22.11
2022-08-26T21:09:42.571Z,22.08
2022-08-26T21:12:13.418Z,22.04
2022-08-26T21:14:49.670Z,22.00
2022-08-26T21:17:19.391Z,21.95
2022-08-26T21:19:48.645Z,21.93
2022-08-26T21:22:18.097Z,21.89
2022-08-26T21:24:47.809Z,21.85
2022-08-26T21:27:19.601Z,21.80
2022-08-26T21:29:55.872Z,21.77
2022-08-26T21:32:25.120Z,21.74
2022-08-26T21:34:56.508Z,21.72
2022-08-26T21:37:27.145Z,21.69
2022-08-26T21:39:58.643Z,21.67
2022-08-26T21:42:33.612Z,21.66
2022-08-26T21:45:04.925Z,21.64
2022-08-26T21:47:35.450Z,21.62
2022-08-26T21:50:05.622Z,21.60
2022-08-26T21:52:35.402Z,21.59
2022-08-26T21:55:09.064Z,21.58
2022-08-26T21:57:39.539Z,21.56
2022-08-26T22:00:19.119Z,21.55
2022-08-26T22:02:50.599Z,21.52
2022-08-26T22:05:23.725Z,21.52
2022-08-26T22:07:53.464Z,21.51
2022-08-26T22:10:39.671Z,21.50
2022-08-26T22:13:10.416Z,21.49
2022-08-26T22:15:40.980Z,21.47
2022-08-26T22:18:10.669Z,21.45
2022-08-26T22:20:40.044Z,21.44
2022-08-26T22:23:10.115Z,21.43
2022-08-26T22:25:39.633Z,21.42
2022-08-26T22:28:08.927Z,21.41
2022-08-26T22:30:40.219Z,21.41
2022-08-26T22:33:10.284Z,21.39
2022-08-26T22:35:45.672Z,21.38
2022-08-26T22:38:15.473Z,21.37
2022-08-26T22:40:48.259Z,21.36
2022-08-26T22:43:18.903Z,21.35
2022-08-26T22:46:01.548Z,21.33
2022-08-26T22:48:44.403Z,21.29
2022-08-26T22:51:13.813Z,21.26
2022-08-26T22:53:43.771Z,21.23
2022-08-26T22:56:14.389Z,21.19
2022-08-26T22:58:43.346Z,21.17
2022-08-26T23:01:12.353Z,21.13
2022-08-26T23:03:41.548Z,21.12
2022-08-26T23:06:12.000Z,21.11
2022-08-26T23:08:42.435Z,21.10
2022-08-26T23:11:13.123Z,21.08
2022-08-26T23:13:42.893Z,21.07
2022-08-26T23:16:15.807Z,21.05
2022-08-26T23:18:45.229Z,21.04
2022-08-26T23:21:15.513Z,20.99
2022-08-26T23:23:45.925Z,20.97
2022-08-26T23:26:17.643Z,20.94
2022-08-26T23:28:47.277Z,20.91
2022-08-26T23:31:18.989Z,20.89
2022-08-26T23:34:07.326Z,20.89
2022-08-26T23:36:41.851Z,20.87
2022-08-26T23:39:14.423Z,20.83
2022-08-26T23:41:43.825Z,20.79
2022-08-26T23:44:13.842Z,20.77
2022-08-26T23:46:57.522Z,20.76
2022-08-26T23:49:26.984Z,20.73
2022-08-26T23:52:14.831Z,20.71
2022-08-26T23:54:44.495Z,20.68
2022-08-26T23:57:17.870Z,20.66
2022-08-26T23:59:50.451Z,20.63
